createdAt,value
2023-07-03T00:00:28.600Z,67.79
2023-07-03T00:02:56.180Z,67.83
2023-07-03T00:05:25.103Z,68.27
2023-07-03T00:07:52.964Z,68.28
2023-07-03T00:10:24.665Z,68.07
2023-07-03T00:12:52.255Z,68.45
2023-07-03T00:15:20.121Z,68.68
2023-07-03T00:17:47.869Z,68.58
2023-07-03T00:20:15.958Z,68.75
2023-07-03T00:22:45.435Z,68.86
2023-07-03T00:25:13.195Z,68.82
2023-07-03T00:27:40.726Z,68.95
2023-07-03T00:30:09.265Z,69.03
2023-07-03T00:32:36.938Z,68.95
2023-07-03T00:35:05.027Z,69.11
2023-07-03T00:37:32.590Z,69.09
2023-07-03T00:40:00.717Z,69.01
2023-07-03T00:42:32.453Z,69.29
2023-07-03T00:45:00.753Z,69.35
2023-07-03T00:47:28.827Z,69.36
2023-07-03T00:49:56.769Z,69.54
2023-07-03T00:52:26.635Z,69.63
2023-07-03T00:54:55.620Z,69.63
2023-07-03T00:57:24.558Z,69.76
2023-07-03T00:59:52.275Z,69.94
2023-07-03T01:02:30.734Z,69.84
2023-07-03T01:05:19.585Z,69.97
2023-07-03T01:07:48.044Z,70.15
2023-07-03T01:10:22.703Z,70.13
2023-07-03T01:13:03.953Z,70.33
2023-07-03T01:15:39.637Z,70.33
2023-07-03T01:18:08.956Z,70.63
2023-07-03T01:20:54.503Z,70.75
2023-07-03T01:23:43.002Z,71.03
2023-07-03T01:26:14.161Z,70.96
2023-07-03T01:28:45.797Z,71.15
2023-07-03T01:31:15.833Z,70.69
2023-07-03T01:33:46.142Z,71.38
2023-07-03T01:36:15.621Z,71.56
2023-07-03T01:38:46.637Z,71.59
2023-07-03T01:41:17.693Z,71.64
2023-07-03T01:43:47.587Z,71.80
2023-07-03T01:46:16.881Z,71.77
2023-07-03T01:48:44.712Z,72.02
2023-07-03T01:51:25.947Z,72.07
2023-07-03T01:54:11.865Z,72.49
2023-07-03T01:56:47.067Z,72.52
2023-07-03T01:59:19.112Z,72.53
2023-07-03T02:01:58.718Z,72.71
2023-07-03T02:04:35.148Z,72.87
2023-07-03T02:07:07.188Z,73.25
2023-07-03T02:09:35.048Z,73.09
2023-07-03T02:12:07.194Z,73.35
2023-07-03T02:14:36.611Z,73.85
2023-07-03T02:17:07.506Z,73.69
2023-07-03T02:19:36.224Z,74.09
2023-07-03T02:22:04.305Z,74.12
2023-07-03T02:24:31.960Z,74.57
2023-07-03T02:27:01.224Z,74.51
2023-07-03T02:29:28.790Z,74.80
2023-07-03T02:31:56.248Z,74.91
2023-07-03T02:34:24.056Z,75.12
2023-07-03T02:36:51.594Z,75.44
2023-07-03T02:39:19.218Z,75.49
2023-07-03T02:41:46.730Z,75.92
2023-07-03T02:44:14.305Z,75.92
2023-07-03T02:46:43.278Z,76.18
2023-07-03T02:49:12.864Z,76.43
2023-07-03T02:51:43.887Z,76.45
2023-07-03T02:54:11.766Z,76.47
2023-07-03T02:56:40.874Z,77.17
2023-07-03T02:59:08.527Z,77.26
2023-07-03T03:01:37.737Z,77.73
2023-07-03T03:04:07.534Z,77.85
2023-07-03T03:06:35.913Z,78.21
2023-07-03T03:09:04.761Z,78.39
2023-07-03T03:11:33.646Z,78.81
2023-07-03T03:14:01.985Z,78.74
2023-07-03T03:16:30.251Z,79.00
2023-07-03T03:18:57.853Z,79.37
2023-07-03T03:21:25.444Z,79.84
2023-07-03T03:23:53.138Z,79.76
2023-07-03T03:26:20.720Z,80.45
2023-07-03T03:28:48.558Z,80.64
2023-07-03T03:31:16.305Z,80.89
2023-07-03T03:33:52.504Z,80.89
2023-07-03T03:36:20.255Z,81.15
2023-07-03T03:38:47.875Z,81.47
2023-07-03T03:41:16.355Z,81.84
2023-07-03T03:43:48.819Z,82.36
2023-07-03T03:46:16.907Z,82.02
2023-07-03T03:48:46.021Z,82.33
2023-07-03T03:51:13.796Z,82.30
2023-07-03T03:53:41.874Z,82.87
2023-07-03T03:56:09.670Z,83.16
2023-07-03T03:58:39.135Z,83.18
2023-07-03T04:01:06.694Z,83.54
2023-07-03T04:03:34.272Z,83.86
2023-07-03T04:06:02.201Z,84.42
2023-07-03T04:08:29.716Z,84.45
2023-07-03T04:10:57.971Z,84.80
2023-07-03T04:13:25.686Z,84.67
2023-07-03T04:15:53.431Z,85.01
2023-07-03T04:18:23.081Z,85.42
2023-07-03T04:20:51.690Z,85.46
2023-07-03T04:23:19.583Z,85.47
2023-07-03T04:25:50.093Z,85.62
2023-07-03T04:28:21.118Z,85.55
2023-07-03T04:30:49.500Z,86.14
2023-07-03T04:33:17.846Z,86.09
2023-07-03T04:35:48.114Z,86.36
2023-07-03T04:38:20.198Z,86.25
2023-07-03T04:40:48.162Z,86.29
2023-07-03T04:43:17.108Z,86.56
2023-07-03T04:45:51.278Z,86.79
2023-07-03T04:48:19.606Z,86.87
2023-07-03T04:50:49.829Z,87.03
2023-07-03T04:53:22.247Z,87.11
2023-07-03T04:55:52.109Z,87.11
2023-07-03T04:58:20.297Z,86.80
2023-07-03T05:00:48.284Z,86.90
2023-07-03T05:03:16.785Z,87.16
2023-07-03T05:05:44.436Z,87.12
2023-07-03T05:08:12.234Z,87.06
2023-07-03T05:10:39.761Z,87.51
2023-07-03T05:13:07.496Z,87.47
2023-07-03T05:15:35.389Z,87.39
2023-07-03T05:18:03.113Z,87.54
2023-07-03T05:20:31.000Z,87.62
2023-07-03T05:22:59.190Z,87.78
2023-07-03T05:25:26.801Z,88.01
2023-07-03T05:27:54.295Z,87.83
2023-07-03T05:30:21.742Z,87.82
2023-07-03T05:32:49.367Z,88.04
2023-07-03T05:35:17.069Z,87.85
2023-07-03T05:37:44.708Z,88.05
2023-07-03T05:40:16.197Z,88.11
2023-07-03T05:42:44.344Z,88.01
2023-07-03T05:45:12.196Z,87.90
2023-07-03T05:47:39.887Z,87.99
2023-07-03T05:50:08.501Z,87.85
2023-07-03T05:52:37.686Z,87.80
2023-07-03T05:55:06.214Z,87.78
2023-07-03T05:57:33.890Z,87.94
2023-07-03T06:00:01.392Z,87.49
2023-07-03T06:02:29.844Z,87.29
2023-07-03T06:04:57.484Z,87.34
2023-07-03T06:07:25.026Z,87.33
2023-07-03T06:09:52.859Z,87.33
2023-07-03T06:12:20.404Z,87.29
2023-07-03T06:14:47.905Z,87.30
2023-07-03T06:17:15.437Z,87.27
2023-07-03T06:19:43.165Z,87.35
2023-07-03T06:22:10.706Z,87.28
2023-07-03T06:24:38.243Z,87.17
2023-07-03T06:27:07.694Z,87.38
2023-07-03T06:29:35.645Z,87.42
2023-07-03T06:32:03.353Z,87.42
2023-07-03T06:34:31.036Z,87.50
2023-07-03T06:36:58.773Z,87.15
2023-07-03T06:39:26.248Z,87.26
2023-07-03T06:41:53.797Z,87.24
2023-07-03T06:44:21.915Z,86.77
2023-07-03T06:46:51.937Z,86.88
2023-07-03T06:49:21.369Z,86.78
2023-07-03T06:51:50.026Z,86.73
2023-07-03T06:54:17.557Z,86.82
2023-07-03T06:56:45.142Z,86.66
2023-07-03T06:59:13.108Z,87.12
2023-07-03T07:01:41.829Z,87.23
2023-07-03T07:04:10.560Z,87.37
2023-07-03T07:06:40.645Z,87.39
2023-07-03T07:09:08.224Z,87.31
2023-07-03T07:11:37.262Z,87.14
2023-07-03T07:14:07.336Z,86.87
2023-07-03T07:16:37.729Z,86.97
2023-07-03T07:19:09.084Z,86.73
2023-07-03T07:21:39.630Z,86.73
2023-07-03T07:24:23.388Z,86.67
2023-07-03T07:26:56.467Z,86.76
2023-07-03T07:29:26.203Z,86.73
2023-07-03T07:31:56.918Z,86.92
2023-07-03T07:34:25.623Z,86.93
2023-07-03T07:36:53.701Z,86.10
2023-07-03T07:39:22.550Z,86.52
2023-07-03T07:41:52.289Z,86.55
2023-07-03T07:44:20.325Z,86.43
2023-07-03T07:46:48.250Z,86.36
2023-07-03T07:49:16.149Z,86.38
2023-07-03T07:51:43.612Z,86.35
2023-07-03T07:54:11.202Z,85.90
2023-07-03T07:56:38.702Z,85.17
2023-07-03T07:59:06.314Z,84.77
2023-07-03T08:01:34.025Z,83.92
2023-07-03T08:04:01.708Z,83.79
2023-07-03T08:06:29.335Z,83.93
2023-07-03T08:08:56.941Z,83.77
2023-07-03T08:11:29.466Z,83.03
2023-07-03T08:13:56.912Z,82.08
2023-07-03T08:16:24.581Z,81.57
2023-07-03T08:18:52.362Z,80.62
2023-07-03T08:21:20.569Z,79.19
2023-07-03T08:23:48.049Z,78.90
2023-07-03T08:26:23.121Z,78.17
2023-07-03T08:28:50.871Z,78.22
2023-07-03T08:31:18.859Z,78.35
2023-07-03T08:33:46.608Z,77.95
2023-07-03T08:38:45.456Z,78.22
2023-07-03T08:41:14.657Z,77.84
2023-07-03T08:43:48.154Z,77.53
2023-07-03T08:46:26.068Z,77.62
2023-07-03T08:49:04.954Z,78.17
2023-07-03T08:51:38.225Z,77.79
2023-07-03T08:54:19.729Z,77.68
2023-07-03T08:56:49.267Z,77.17
2023-07-03T08:59:16.811Z,75.40
2023-07-03T09:01:58.005Z,74.99
2023-07-03T09:05:26.881Z,75.19
2023-07-03T09:08:01.216Z,75.19
2023-07-03T09:10:42.563Z,75.03
2023-07-03T09:13:28.278Z,75.15
2023-07-03T09:16:26.848Z,74.83
2023-07-03T09:19:07.196Z,72.91
2023-07-03T09:21:38.743Z,72.17
2023-07-03T09:24:40.866Z,70.82
2023-07-03T09:27:21.014Z,70.45
2023-07-03T09:29:50.256Z,70.76
2023-07-03T09:32:27.939Z,69.07
2023-07-03T09:35:13.599Z,67.51
2023-07-03T09:37:51.199Z,67.81
2023-07-03T09:40:27.043Z,66.77
2023-07-03T09:42:54.826Z,66.15
2023-07-03T09:45:31.628Z,64.87
2023-07-03T09:48:04.219Z,64.06
2023-07-03T09:50:37.646Z,64.26
2023-07-03T09:53:09.216Z,64.80
2023-07-03T09:55:37.934Z,64.09
2023-07-03T09:58:17.659Z,63.53
2023-07-03T10:00:53.132Z,63.71
2023-07-03T10:03:32.433Z,64.42
2023-07-03T10:11:44.710Z,64.10
2023-07-03T10:14:21.803Z,64.48
2023-07-03T10:16:51.964Z,64.47
2023-07-03T10:19:21.704Z,64.62
2023-07-03T10:21:52.814Z,64.35
2023-07-03T10:24:22.085Z,64.53
2023-07-03T10:27:00.021Z,64.65
2023-07-03T10:29:38.491Z,64.76
2023-07-03T10:32:15.142Z,65.10
2023-07-03T10:35:02.291Z,65.28
2023-07-03T10:37:44.726Z,65.51
2023-07-03T10:40:23.280Z,65.22
2023-07-03T10:42:57.523Z,64.80
2023-07-03T10:45:28.520Z,64.87
2023-07-03T10:48:02.863Z,63.78
2023-07-03T10:50:41.638Z,62.92
2023-07-03T10:53:36.833Z,62.92
2023-07-03T10:56:22.941Z,63.50
2023-07-03T10:59:14.898Z,62.77
2023-07-03T11:02:10.582Z,63.21
2023-07-03T11:04:50.362Z,62.56
2023-07-03T11:07:29.259Z,62.42
2023-07-03T11:10:25.723Z,61.75
2023-07-03T11:13:18.207Z,61.19
2023-07-03T11:16:08.500Z,59.08
2023-07-03T11:25:10.746Z,58.11
2023-07-03T11:28:01.484Z,57.23
2023-07-03T11:30:29.509Z,56.91
2023-07-03T11:33:01.024Z,57.34
2023-07-03T11:41:00.505Z,54.66
2023-07-03T11:43:33.428Z,53.72
2023-07-03T11:46:00.894Z,53.44
2023-07-03T11:48:39.348Z,52.69
2023-07-03T11:51:13.931Z,53.31
2023-07-03T11:53:52.400Z,52.50
2023-07-03T11:56:32.435Z,51.11
2023-07-03T11:59:26.875Z,52.25
2023-07-03T12:02:15.147Z,50.52
2023-07-03T12:04:49.944Z,50.55
2023-07-03T12:07:21.434Z,50.48
2023-07-03T12:09:51.394Z,51.05
2023-07-03T12:12:25.753Z,50.48
2023-07-03T12:15:03.119Z,50.27
2023-07-03T12:17:37.110Z,50.98
2023-07-03T12:20:22.591Z,50.25
2023-07-03T12:22:53.344Z,50.46
2023-07-03T12:25:28.754Z,49.53
2023-07-03T12:28:14.232Z,49.92
2023-07-03T12:30:42.161Z,50.01
2023-07-03T12:33:20.093Z,49.90
2023-07-03T12:35:47.869Z,50.35
2023-07-03T12:38:17.824Z,50.42
2023-07-03T12:40:47.428Z,50.95
2023-07-03T12:43:18.973Z,50.00
2023-07-03T12:45:55.370Z,49.69
2023-07-03T12:48:24.575Z,50.62
2023-07-03T12:50:59.309Z,51.33
2023-07-03T12:53:30.915Z,50.59
2023-07-03T12:56:07.586Z,50.11
2023-07-03T12:58:35.273Z,50.31
2023-07-03T13:01:09.169Z,50.48
2023-07-03T13:03:42.437Z,51.00
2023-07-03T13:06:24.674Z,51.28
2023-07-03T13:08:53.834Z,51.47
2023-07-03T13:11:41.085Z,51.34
2023-07-03T13:14:22.274Z,51.10
2023-07-03T13:16:54.062Z,50.88
2023-07-03T13:19:31.471Z,51.34
2023-07-03T13:22:08.149Z,51.89
2023-07-03T13:24:46.010Z,51.87
2023-07-03T13:27:28.282Z,51.51
2023-07-03T13:30:29.836Z,51.79
2023-07-03T13:33:11.643Z,51.65
2023-07-03T13:35:52.377Z,52.25
2023-07-03T13:38:30.105Z,51.66
2023-07-03T13:43:32.381Z,51.17
2023-07-03T13:46:00.249Z,51.13
2023-07-03T13:48:28.770Z,51.76
2023-07-03T13:50:57.128Z,51.38
2023-07-03T13:53:27.069Z,50.82
2023-07-03T13:55:55.208Z,51.14
2023-07-03T13:58:23.036Z,51.17
2023-07-03T14:00:50.686Z,51.40
2023-07-03T14:03:18.443Z,51.89
2023-07-03T14:05:51.119Z,52.42
2023-07-03T14:08:22.781Z,53.00
2023-07-03T14:10:50.575Z,52.43
2023-07-03T14:13:20.801Z,51.45
2023-07-03T14:15:48.985Z,51.80
2023-07-03T14:18:18.654Z,51.26
2023-07-03T14:20:49.270Z,51.41
2023-07-03T14:23:18.113Z,51.37
2023-07-03T14:25:47.744Z,51.46
2023-07-03T14:28:16.006Z,51.91
2023-07-03T14:30:43.721Z,52.40
2023-07-03T14:33:11.296Z,53.02
2023-07-03T14:35:39.003Z,52.60
2023-07-03T14:38:06.708Z,52.75
2023-07-03T14:40:46.342Z,52.96
2023-07-03T14:43:14.371Z,52.93
2023-07-03T14:45:44.067Z,52.95
2023-07-03T14:48:11.995Z,53.30
2023-07-03T14:50:41.735Z,53.27
2023-07-03T14:53:09.486Z,53.15
2023-07-03T14:55:37.401Z,53.55
2023-07-03T14:58:10.614Z,53.32
2023-07-03T15:00:40.931Z,52.89
2023-07-03T15:03:12.500Z,52.22
2023-07-03T15:05:40.387Z,52.21
2023-07-03T15:08:08.042Z,52.18
2023-07-03T15:10:38.515Z,52.72
2023-07-03T15:13:12.308Z,53.00
2023-07-03T15:15:48.165Z,52.92
2023-07-03T15:18:16.258Z,53.19
2023-07-03T15:20:44.129Z,53.63
2023-07-03T15:23:11.744Z,53.56
2023-07-03T15:25:39.294Z,53.86
2023-07-03T15:28:07.121Z,53.78
2023-07-03T15:30:40.308Z,54.02
2023-07-03T15:33:08.057Z,53.80
2023-07-03T15:35:36.438Z,53.55
2023-07-03T15:38:04.284Z,53.59
2023-07-03T15:40:31.932Z,53.52
2023-07-03T15:42:59.630Z,53.53
2023-07-03T15:45:27.972Z,53.90
2023-07-03T15:47:55.661Z,54.03
2023-07-03T15:50:23.527Z,53.61
2023-07-03T15:52:56.831Z,53.45
2023-07-03T15:55:24.774Z,53.62
2023-07-03T15:57:52.627Z,53.72
2023-07-03T16:00:21.005Z,53.53
2023-07-03T16:02:48.622Z,53.36
2023-07-03T16:05:18.088Z,53.64
2023-07-03T16:08:11.169Z,53.71
2023-07-03T16:10:41.562Z,53.89
2023-07-03T16:13:09.360Z,53.65
2023-07-03T16:15:48.948Z,53.67
2023-07-03T16:18:32.098Z,53.22
2023-07-03T16:21:13.456Z,53.28
2023-07-03T16:23:47.361Z,53.78
2023-07-03T16:26:17.830Z,53.75
2023-07-03T16:28:49.588Z,53.54
2023-07-03T16:31:31.125Z,53.42
2023-07-03T16:34:01.785Z,53.83
2023-07-03T16:36:34.028Z,53.46
2023-07-03T16:39:09.121Z,53.89
2023-07-03T16:41:40.226Z,54.12
2023-07-03T16:45:03.765Z,54.23
2023-07-03T16:47:36.672Z,54.39
2023-07-03T16:50:09.911Z,54.11
2023-07-03T16:52:51.579Z,54.68
2023-07-03T16:55:39.199Z,54.85
2023-07-03T16:58:09.355Z,54.08
2023-07-03T17:01:09.607Z,53.84
2023-07-03T17:04:07.123Z,54.56
2023-07-03T17:06:40.902Z,54.27
2023-07-03T17:09:14.132Z,54.36
2023-07-03T17:11:41.938Z,54.19
2023-07-03T17:14:09.635Z,54.49
2023-07-03T17:16:37.618Z,54.23
2023-07-03T17:19:05.386Z,54.48
2023-07-03T17:21:43.879Z,54.79
2023-07-03T17:24:11.519Z,54.79
2023-07-03T17:26:41.753Z,54.61
2023-07-03T17:29:09.533Z,54.69
2023-07-03T17:31:37.397Z,54.65
2023-07-03T17:34:05.158Z,54.81
2023-07-03T17:36:34.264Z,54.70
2023-07-03T17:39:01.854Z,54.58
2023-07-03T17:41:29.497Z,54.37
2023-07-03T17:43:57.024Z,54.16
2023-07-03T17:46:24.625Z,53.98
2023-07-03T17:48:52.238Z,54.19
2023-07-03T17:51:19.863Z,53.92
2023-07-03T17:53:48.648Z,53.45
2023-07-03T17:56:16.222Z,53.45
2023-07-03T17:58:44.599Z,52.95
2023-07-03T18:01:13.082Z,53.45
2023-07-03T18:03:41.073Z,53.42
2023-07-03T18:06:09.221Z,53.17
2023-07-03T18:08:37.026Z,53.33
2023-07-03T18:11:04.784Z,52.94
2023-07-03T18:13:32.585Z,52.85
2023-07-03T18:16:03.575Z,52.88
2023-07-03T18:18:34.084Z,52.93
2023-07-03T18:21:04.553Z,52.98
2023-07-03T18:23:32.165Z,52.93
2023-07-03T18:25:59.653Z,53.01
2023-07-03T18:28:27.194Z,53.15
2023-07-03T18:31:03.581Z,53.30
2023-07-03T18:33:36.077Z,53.34
2023-07-03T18:36:04.577Z,53.29
2023-07-03T18:38:32.263Z,53.22
2023-07-03T18:41:06.982Z,53.35
2023-07-03T18:43:34.684Z,53.41
2023-07-03T18:46:02.461Z,53.47
2023-07-03T18:48:30.154Z,53.68
2023-07-03T18:50:57.805Z,53.57
2023-07-03T18:53:25.523Z,53.49
2023-07-03T18:55:53.867Z,53.68
2023-07-03T18:58:21.833Z,53.43
2023-07-03T19:00:49.534Z,53.33
2023-07-03T19:03:17.708Z,53.33
2023-07-03T19:05:51.916Z,53.33
2023-07-03T19:08:20.235Z,53.60
2023-07-03T19:10:47.792Z,53.32
2023-07-03T19:13:15.478Z,53.03
2023-07-03T19:15:43.293Z,53.05
2023-07-03T19:18:11.590Z,52.68
2023-07-03T19:20:41.409Z,52.93
2023-07-03T19:23:11.340Z,52.92
2023-07-03T19:25:59.032Z,52.99
2023-07-03T19:28:39.413Z,53.05
2023-07-03T19:31:21.024Z,52.96
2023-07-03T19:33:51.297Z,53.44
2023-07-03T19:36:23.822Z,53.54
2023-07-03T19:39:03.587Z,53.32
2023-07-03T19:41:34.353Z,53.39
2023-07-03T19:44:06.231Z,53.48
2023-07-03T19:46:39.840Z,53.71
2023-07-03T19:49:12.001Z,54.17
2023-07-03T19:51:39.897Z,54.28
2023-07-03T19:54:08.416Z,54.47
2023-07-03T19:56:37.297Z,54.50
2023-07-03T19:59:04.960Z,54.56
2023-07-03T20:01:33.012Z,54.51
2023-07-03T20:04:00.992Z,54.78
2023-07-03T20:06:28.705Z,54.83
2023-07-03T20:08:57.754Z,55.11
2023-07-03T20:11:26.105Z,54.96
2023-07-03T20:13:54.119Z,55.42
2023-07-03T20:16:22.455Z,55.51
2023-07-03T20:18:59.317Z,55.65
2023-07-03T20:21:27.008Z,55.77
2023-07-03T20:23:56.247Z,55.96
2023-07-03T20:26:28.154Z,55.93
2023-07-03T20:28:56.149Z,56.18
2023-07-03T20:31:24.071Z,56.39
2023-07-03T20:33:51.757Z,56.42
2023-07-03T20:36:20.642Z,56.36
2023-07-03T20:38:48.880Z,56.67
2023-07-03T20:41:16.811Z,57.02
2023-07-03T20:43:44.785Z,57.14
2023-07-03T20:46:17.630Z,57.12
2023-07-03T20:48:45.934Z,57.47
2023-07-03T20:51:14.285Z,57.49
2023-07-03T20:53:54.181Z,57.48
2023-07-03T20:56:30.187Z,57.87
2023-07-03T20:59:00.013Z,58.04
2023-07-03T21:01:33.125Z,58.14
2023-07-03T21:04:05.183Z,58.25
2023-07-03T21:06:37.956Z,58.53
2023-07-03T21:09:08.031Z,58.51
2023-07-03T21:11:40.444Z,58.79
2023-07-03T21:14:08.399Z,58.88
2023-07-03T21:16:39.872Z,59.11
2023-07-03T21:19:12.379Z,59.56
2023-07-03T21:21:41.786Z,59.50
2023-07-03T21:24:12.260Z,59.73
2023-07-03T21:26:42.533Z,59.99
2023-07-03T21:29:10.420Z,59.90
2023-07-03T21:31:38.166Z,60.24
2023-07-03T21:34:06.027Z,60.35
2023-07-03T21:36:36.472Z,60.24
2023-07-03T21:39:05.906Z,60.52
2023-07-03T21:41:36.784Z,60.71
2023-07-03T21:44:15.660Z,60.82
2023-07-03T21:46:47.097Z,61.66
2023-07-03T21:49:16.716Z,61.44
2023-07-03T21:51:44.562Z,62.38
2023-07-03T21:54:12.257Z,62.74
2023-07-03T21:56:41.559Z,63.16
2023-07-03T21:59:09.554Z,64.83
2023-07-03T22:01:39.799Z,68.81
2023-07-03T22:04:09.282Z,70.55
2023-07-03T22:06:36.987Z,72.85
2023-07-03T22:09:04.848Z,74.32
2023-07-03T22:11:33.652Z,76.11
2023-07-03T22:14:03.329Z,77.77
2023-07-03T22:16:31.041Z,79.26
2023-07-03T22:18:58.616Z,80.32
2023-07-03T22:21:26.249Z,81.42
2023-07-03T22:23:53.756Z,81.87
2023-07-03T22:26:21.896Z,82.76
2023-07-03T22:28:50.213Z,82.91
2023-07-03T22:31:17.914Z,84.12
2023-07-03T22:33:45.496Z,84.00
2023-07-03T22:36:14.944Z,83.60
2023-07-03T22:38:42.553Z,84.24
2023-07-03T22:41:10.934Z,83.98
2023-07-03T22:43:38.621Z,83.96
2023-07-03T22:46:12.368Z,84.01
2023-07-03T22:48:44.823Z,83.96
2023-07-03T22:51:13.723Z,83.85
2023-07-03T22:53:41.306Z,83.74
2023-07-03T22:56:08.832Z,83.75
2023-07-03T22:58:36.486Z,84.00
2023-07-03T23:01:10.247Z,84.19
2023-07-03T23:03:40.020Z,84.17
2023-07-03T23:06:08.621Z,84.40
2023-07-03T23:08:38.059Z,84.83
2023-07-03T23:11:06.969Z,85.02
2023-07-03T23:13:35.292Z,85.24
2023-07-03T23:16:06.922Z,85.69
2023-07-03T23:18:38.524Z,85.54
2023-07-03T23:21:11.300Z,83.96
2023-07-03T23:23:39.568Z,85.13
2023-07-03T23:26:13.290Z,86.23
2023-07-03T23:28:43.337Z,86.16
2023-07-03T23:31:14.894Z,86.82
2023-07-03T23:33:49.057Z,87.27
2023-07-03T23:36:21.502Z,87.37
2023-07-03T23:38:52.914Z,87.83
2023-07-03T23:41:21.500Z,87.51
2023-07-03T23:43:50.316Z,88.32
2023-07-03T23:46:18.512Z,88.47
2023-07-03T23:48:46.302Z,88.52
2023-07-03T23:51:18.606Z,89.71
2023-07-03T23:53:48.492Z,89.61
2023-07-03T23:56:19.682Z,89.72
2023-07-03T23:58:49.782Z,90.49
